createdAt,value
2022-08-12T00:01:01.391Z,101506.25
2022-08-12T00:02:51.840Z,101507.25
2022-08-12T00:04:42.243Z,101509.94
2022-08-12T00:06:33.645Z,101502.84
2022-08-12T00:08:28.636Z,101501.97
2022-08-12T00:10:23.407Z,101501.13
2022-08-12T00:12:13.784Z,101503.09
2022-08-12T00:14:04.237Z,101505.81
2022-08-12T00:15:56.282Z,101503.09
2022-08-12T00:17:48.473Z,101509.34
2022-08-12T00:19:38.613Z,101508.63
2022-08-12T00:21:31.090Z,101504.53
2022-08-12T00:23:21.516Z,101501.38
2022-08-12T00:25:17.556Z,101505.88
2022-08-12T00:27:08.561Z,101508.66
2022-08-12T00:28:59.545Z,101507.38
2022-08-12T00:30:50.156Z,101508.34
2022-08-12T00:32:45.296Z,101516.25
2022-08-12T00:34:49.092Z,101512.00
2022-08-12T00:36:45.056Z,101512.88
2022-08-12T00:38:35.563Z,101515.94
2022-08-12T00:40:29.566Z,101518.31
2022-08-12T00:42:11.558Z,101516.31
2022-08-12T00:43:43.767Z,101515.84
2022-08-12T00:45:15.680Z,101516.81
2022-08-12T00:46:53.143Z,101517.56
2022-08-12T00:48:26.392Z,101518.41
2022-08-12T00:49:59.813Z,101508.50
2022-08-12T00:51:51.515Z,101516.44
2022-08-12T00:53:27.566Z,101521.75
2022-08-12T00:55:02.531Z,101519.19
2022-08-12T00:56:36.672Z,101518.84
2022-08-12T00:58:08.961Z,101520.09
2022-08-12T00:59:47.676Z,101513.16
2022-08-12T01:01:21.750Z,101515.69
2022-08-12T01:02:57.985Z,101521.66
2022-08-12T01:04:48.360Z,101515.31
2022-08-12T01:06:41.233Z,101516.84
2022-08-12T01:08:31.697Z,101520.03
2022-08-12T01:10:32.427Z,101523.25
2022-08-12T01:12:06.390Z,101506.53
2022-08-12T01:13:41.555Z,101520.09
2022-08-12T01:15:13.831Z,101514.72
2022-08-12T01:16:47.060Z,101509.34
2022-08-12T01:18:20.819Z,101516.81
2022-08-12T01:19:55.849Z,101511.44
2022-08-12T01:21:56.799Z,101517.19
2022-08-12T01:23:59.956Z,101521.53
2022-08-12T01:25:56.606Z,101510.56
2022-08-12T01:27:32.592Z,101522.03
2022-08-12T01:29:06.930Z,101513.97
2022-08-12T01:30:42.610Z,101518.38
2022-08-12T01:32:15.887Z,101526.44
2022-08-12T01:33:57.255Z,101515.56
2022-08-12T01:35:32.959Z,101519.09
2022-08-12T01:37:07.531Z,101514.56
2022-08-12T01:38:42.386Z,101521.78
2022-08-12T01:40:31.275Z,101517.38
2022-08-12T01:42:10.529Z,101513.84
2022-08-12T01:43:44.449Z,101514.81
2022-08-12T01:45:17.542Z,101513.97
2022-08-12T01:46:58.528Z,101518.06
2022-08-12T01:48:49.468Z,101508.47
2022-08-12T01:50:31.805Z,101514.38
2022-08-12T01:52:20.959Z,101509.28
2022-08-12T01:54:06.948Z,101517.97
2022-08-12T01:55:41.242Z,101510.38
2022-08-12T01:57:57.680Z,101516.03
2022-08-12T01:59:39.850Z,101509.94
2022-08-12T02:01:12.883Z,101517.88
2022-08-12T02:02:48.989Z,101507.13
2022-08-12T02:04:46.492Z,101512.50
2022-08-12T02:06:44.381Z,101508.00
2022-08-12T02:08:52.506Z,101513.66
2022-08-12T02:10:53.453Z,101518.19
2022-08-12T02:12:42.824Z,101528.19
2022-08-12T02:14:47.385Z,101524.53
2022-08-12T02:16:31.601Z,101519.16
2022-08-12T02:18:15.186Z,101521.75
2022-08-12T02:20:03.557Z,101521.25
2022-08-12T02:21:41.923Z,101523.94
2022-08-12T02:23:15.005Z,101522.84
2022-08-12T02:24:49.035Z,101529.03
2022-08-12T02:26:22.834Z,101528.47
2022-08-12T02:27:56.879Z,101523.19
2022-08-12T02:29:29.496Z,101516.00
2022-08-12T02:31:04.730Z,101523.31
2022-08-12T02:32:40.296Z,101519.91
2022-08-12T02:34:14.404Z,101522.69
2022-08-12T02:35:47.258Z,101528.06
2022-08-12T02:37:21.335Z,101537.72
2022-08-12T02:38:55.141Z,101531.25
2022-08-12T02:40:29.313Z,101527.59
2022-08-12T02:42:04.337Z,101527.22
2022-08-12T02:43:41.491Z,101530.53
2022-08-12T02:45:16.301Z,101535.16
2022-08-12T02:46:53.526Z,101531.97
2022-08-12T02:48:30.782Z,101532.13
2022-08-12T02:50:04.573Z,101530.41
2022-08-12T02:51:46.349Z,101526.97
2022-08-12T02:53:18.726Z,101529.78
2022-08-12T02:54:57.315Z,101529.78
2022-08-12T02:56:30.879Z,101525.16
2022-08-12T02:58:12.050Z,101533.69
2022-08-12T02:59:49.509Z,101523.78
2022-08-12T03:01:25.383Z,101528.06
2022-08-12T03:03:00.645Z,101526.97
2022-08-12T03:04:43.072Z,101525.84
2022-08-12T03:06:21.387Z,101528.06
2022-08-12T03:07:59.269Z,101531.50
2022-08-12T03:09:40.720Z,101525.25
2022-08-12T03:11:42.300Z,101522.69
2022-08-12T03:13:15.668Z,101524.75
2022-08-12T03:14:51.597Z,101520.34
2022-08-12T03:16:25.571Z,101522.94
2022-08-12T03:18:24.463Z,101528.63
2022-08-12T03:20:09.282Z,101517.63
2022-08-12T03:21:56.458Z,101520.53
2022-08-12T03:23:40.874Z,101522.47
2022-08-12T03:25:16.101Z,101521.41
2022-08-12T03:26:49.096Z,101521.16
2022-08-12T03:28:41.220Z,101516.53
2022-08-12T03:30:14.502Z,101517.25
2022-08-12T03:31:48.403Z,101515.31
2022-08-12T03:33:22.040Z,101511.16
2022-08-12T03:34:58.704Z,101520.31
2022-08-12T03:36:32.236Z,101523.00
2022-08-12T03:38:07.839Z,101520.44
2022-08-12T03:39:43.632Z,101516.03
2022-08-12T03:41:35.421Z,101509.94
2022-08-12T03:43:28.764Z,101521.13
2022-08-12T03:45:52.213Z,101516.00
2022-08-12T03:47:51.113Z,101516.81
2022-08-12T03:49:41.644Z,101521.81
2022-08-12T03:51:32.250Z,101521.06
2022-08-12T03:53:25.581Z,101512.28
2022-08-12T03:55:16.055Z,101513.47
2022-08-12T03:57:06.235Z,101511.38
2022-08-12T03:58:58.153Z,101504.88
2022-08-12T04:00:35.925Z,101508.88
2022-08-12T04:02:08.117Z,101507.19
2022-08-12T04:03:52.306Z,101505.47
2022-08-12T04:05:24.083Z,101513.41
2022-08-12T04:07:16.332Z,101523.03
2022-08-12T04:08:49.218Z,101513.66
2022-08-12T04:10:21.054Z,101525.78
2022-08-12T04:12:11.448Z,101521.88
2022-08-12T04:13:43.449Z,101530.78
2022-08-12T04:15:18.569Z,101526.03
2022-08-12T04:16:51.816Z,101529.56
2022-08-12T04:18:24.356Z,101527.63
2022-08-12T04:19:57.238Z,101523.75
2022-08-12T04:21:29.048Z,101533.41
2022-08-12T04:23:00.936Z,101522.66
2022-08-12T04:24:36.670Z,101532.78
2022-08-12T04:26:10.328Z,101537.50
2022-08-12T04:27:44.441Z,101536.66
2022-08-12T04:29:16.206Z,101530.53
2022-08-12T04:30:47.926Z,101533.47
2022-08-12T04:32:21.079Z,101529.09
2022-08-12T04:33:53.035Z,101532.72
2022-08-12T04:35:25.865Z,101533.94
2022-08-12T04:36:57.508Z,101530.59
2022-08-12T04:38:30.560Z,101518.53
2022-08-12T04:40:03.850Z,101526.69
2022-08-12T04:41:37.342Z,101527.56
2022-08-12T04:43:59.747Z,101528.53
2022-08-12T04:45:22.615Z,101528.28
2022-08-12T04:46:55.720Z,101525.34
2022-08-12T04:48:28.934Z,101524.16
2022-08-12T04:50:02.718Z,101525.66
2022-08-12T04:52:03.294Z,101527.38
2022-08-12T04:53:35.301Z,101528.34
2022-08-12T04:55:08.433Z,101520.41
2022-08-12T04:56:40.866Z,101525.44
2022-08-12T04:58:12.808Z,101523.59
2022-08-12T04:59:48.901Z,101523.59
2022-08-12T05:01:21.065Z,101524.56
2022-08-12T05:02:52.758Z,101524.56
2022-08-12T05:04:27.324Z,101520.28
2022-08-12T05:05:59.221Z,101518.47
2022-08-12T05:07:31.243Z,101520.91
2022-08-12T05:09:03.265Z,101520.31
2022-08-12T05:10:46.464Z,101528.66
2022-08-12T05:12:19.838Z,101532.91
2022-08-12T05:13:57.701Z,101521.31
2022-08-12T05:15:29.780Z,101525.13
2022-08-12T05:17:02.180Z,101527.81
2022-08-12T05:18:39.809Z,101516.09
2022-08-12T05:20:15.730Z,101529.53
2022-08-12T05:21:47.909Z,101525.00
2022-08-12T05:23:21.425Z,101526.94
2022-08-12T05:24:53.540Z,101523.41
2022-08-12T05:26:25.595Z,101521.59
2022-08-12T05:27:59.126Z,101525.22
2022-08-12T05:30:06.503Z,101520.72
2022-08-12T05:31:42.417Z,101512.06
2022-08-12T05:33:15.666Z,101517.31
2022-08-12T05:34:47.992Z,101518.44
2022-08-12T05:36:21.078Z,101525.78
2022-08-12T05:38:12.694Z,101522.63
2022-08-12T05:39:44.417Z,101534.94
2022-08-12T05:41:20.278Z,101528.72
2022-08-12T05:42:54.044Z,101534.09
2022-08-12T05:44:25.862Z,101534.34
2022-08-12T05:45:57.524Z,101529.00
2022-08-12T05:47:53.008Z,101535.06
2022-08-12T05:49:20.981Z,101531.41
2022-08-12T05:50:53.083Z,101538.28
2022-08-12T05:52:26.160Z,101530.75
2022-08-12T05:53:58.732Z,101542.06
2022-08-12T05:55:31.753Z,101537.34
2022-08-12T05:57:04.245Z,101541.63
2022-08-12T05:58:35.917Z,101543.09
2022-08-12T06:00:08.607Z,101538.69
2022-08-12T06:02:09.111Z,101545.78
2022-08-12T06:03:35.172Z,101542.72
2022-08-12T06:05:10.460Z,101543.47
2022-08-12T06:06:42.335Z,101545.19
2022-08-12T06:08:17.616Z,101540.53
2022-08-12T06:09:49.325Z,101548.94
2022-08-12T06:11:22.181Z,101547.63
2022-08-12T06:12:56.216Z,101548.34
2022-08-12T06:14:28.147Z,101548.84
2022-08-12T06:15:59.806Z,101551.78
2022-08-12T06:17:31.554Z,101546.63
2022-08-12T06:19:03.414Z,101543.22
2022-08-12T06:20:35.737Z,101548.06
2022-08-12T06:22:08.440Z,101543.66
2022-08-12T06:23:42.953Z,101539.34
2022-08-12T06:25:18.623Z,101542.13
2022-08-12T06:26:53.855Z,101536.16
2022-08-12T06:28:26.262Z,101533.66
2022-08-12T06:30:09.379Z,101535.00
2022-08-12T06:31:43.506Z,101535.19
2022-08-12T06:33:25.093Z,101537.25
2022-08-12T06:35:24.027Z,101536.56
2022-08-12T06:36:59.137Z,101539.34
2022-08-12T06:38:32.212Z,101527.91
2022-08-12T06:40:07.269Z,101536.19
2022-08-12T06:42:02.426Z,101536.66
2022-08-12T06:44:07.084Z,101536.03
2022-08-12T06:45:46.706Z,101540.59
2022-08-12T06:47:19.425Z,101542.63
2022-08-12T06:48:57.401Z,101547.19
2022-08-12T06:50:30.994Z,101538.59
2022-08-12T06:52:07.398Z,101535.19
2022-08-12T06:53:39.195Z,101533.69
2022-08-12T06:55:23.117Z,101533.97
2022-08-12T06:57:04.753Z,101537.16
2022-08-12T06:58:38.846Z,101530.50
2022-08-12T07:00:12.442Z,101541.72
2022-08-12T07:01:50.682Z,101533.09
2022-08-12T07:03:30.142Z,101547.69
2022-08-12T07:05:01.875Z,101540.91
2022-08-12T07:06:33.653Z,101543.88
2022-08-12T07:08:10.230Z,101545.06
2022-08-12T07:10:04.214Z,101548.34
2022-08-12T07:11:35.892Z,101545.06
2022-08-12T07:13:09.447Z,101546.22
2022-08-12T07:14:43.712Z,101538.41
2022-08-12T07:16:18.397Z,101544.25
2022-08-12T07:17:50.125Z,101544.84
2022-08-12T07:19:22.458Z,101531.59
2022-08-12T07:20:54.363Z,101540.13
2022-08-12T07:22:26.133Z,101540.44
2022-08-12T07:23:57.810Z,101544.38
2022-08-12T07:25:40.576Z,101546.66
2022-08-12T07:27:14.691Z,101546.94
2022-08-12T07:28:47.954Z,101548.34
2022-08-12T07:30:19.701Z,101551.19
2022-08-12T07:31:51.814Z,101537.13
2022-08-12T07:33:27.987Z,101548.34
2022-08-12T07:34:59.661Z,101547.94
2022-08-12T07:36:33.724Z,101543.91
2022-08-12T07:38:29.790Z,101540.38
2022-08-12T07:40:02.431Z,101553.44
2022-08-12T07:41:34.350Z,101546.59
2022-08-12T07:43:07.468Z,101550.56
2022-08-12T07:44:39.137Z,101546.72
2022-08-12T07:46:13.709Z,101549.84
2022-08-12T07:47:45.570Z,101550.06
2022-08-12T07:49:17.408Z,101553.19
2022-08-12T07:50:50.525Z,101551.06
2022-08-12T07:52:22.668Z,101549.06
2022-08-12T07:54:00.955Z,101556.75
2022-08-12T07:55:36.566Z,101551.75
2022-08-12T07:57:11.683Z,101554.88
2022-08-12T07:58:47.141Z,101561.34
2022-08-12T08:00:19.668Z,101551.09
2022-08-12T08:01:52.694Z,101560.63
2022-08-12T08:03:25.806Z,101554.75
2022-08-12T08:04:57.565Z,101558.28
2022-08-12T08:06:31.970Z,101554.59
2022-08-12T08:08:12.902Z,101561.84
2022-08-12T08:09:44.606Z,101558.00
2022-08-12T08:11:34.872Z,101555.84
2022-08-12T08:13:06.619Z,101558.41
2022-08-12T08:14:40.469Z,101557.41
2022-08-12T08:16:15.143Z,101555.72
2022-08-12T08:17:59.465Z,101557.41
2022-08-12T08:19:32.093Z,101557.50
2022-08-12T08:21:05.361Z,101553.88
2022-08-12T08:22:42.595Z,101553.59
2022-08-12T08:24:14.751Z,101563.41
2022-08-12T08:25:47.148Z,101563.72
2022-08-12T08:27:19.370Z,101552.19
2022-08-12T08:28:52.216Z,101560.00
2022-08-12T08:30:29.731Z,101558.69
2022-08-12T08:32:10.022Z,101556.00
2022-08-12T08:34:04.961Z,101553.28
2022-08-12T08:35:46.117Z,101560.09
2022-08-12T08:37:22.603Z,101549.84
2022-08-12T08:38:58.997Z,101555.47
2022-08-12T08:40:49.932Z,101552.31
2022-08-12T08:42:40.533Z,101553.84
2022-08-12T08:44:13.068Z,101551.00
2022-08-12T08:45:48.562Z,101547.81
2022-08-12T08:47:24.063Z,101548.91
2022-08-12T08:49:02.847Z,101545.88
2022-08-12T08:50:36.853Z,101547.25
2022-08-12T08:52:11.246Z,101547.66
2022-08-12T08:53:44.572Z,101546.63
2022-08-12T08:55:37.460Z,101550.75
2022-08-12T08:57:17.398Z,101545.88
2022-08-12T08:58:50.096Z,101547.97
2022-08-12T09:00:24.053Z,101549.88
2022-08-12T09:01:58.203Z,101543.28
2022-08-12T09:05:08.301Z,101551.25
2022-08-12T09:05:25.847Z,101556.69
2022-08-12T09:07:17.039Z,101556.69
2022-08-12T09:08:54.877Z,101551.09
2022-08-12T09:10:34.419Z,101552.34
2022-08-12T09:12:29.804Z,101540.00
2022-08-12T09:14:10.906Z,101541.22
2022-08-12T09:16:02.906Z,101544.47
2022-08-12T09:17:42.994Z,101544.31
2022-08-12T09:19:27.169Z,101531.94
2022-08-12T09:22:57.643Z,101536.19
2022-08-12T09:24:34.217Z,101534.84
2022-08-12T09:26:09.724Z,101537.94
2022-08-12T09:30:10.108Z,101530.06
2022-08-12T09:32:03.337Z,101529.38
2022-08-12T09:34:29.084Z,101536.19
2022-08-12T09:35:18.461Z,101526.50
2022-08-12T09:37:19.219Z,101525.50
2022-08-12T09:38:58.426Z,101530.59
2022-08-12T09:42:09.388Z,101529.09
2022-08-12T09:42:54.421Z,101529.78
2022-08-12T09:45:18.241Z,101529.47
2022-08-12T09:46:46.639Z,101528.63
2022-08-12T09:48:22.051Z,101524.88
2022-08-12T09:49:57.836Z,101526.28
2022-08-12T09:51:37.394Z,101519.50
2022-08-12T09:53:16.222Z,101517.63
2022-08-12T09:54:50.235Z,101508.00
2022-08-12T09:56:57.946Z,101514.19
2022-08-12T09:58:57.176Z,101516.59
2022-08-12T10:00:28.070Z,101508.63
2022-08-12T10:02:44.095Z,101512.41
2022-08-12T10:04:02.893Z,101505.97
2022-08-12T10:06:19.582Z,101502.63
2022-08-12T10:07:40.099Z,101506.22
2022-08-12T10:09:13.907Z,101501.31
2022-08-12T10:11:08.650Z,101500.63
2022-08-12T10:13:10.111Z,101505.56
2022-08-12T10:14:50.592Z,101490.81
2022-08-12T10:16:38.631Z,101499.13
2022-08-12T10:18:12.098Z,101483.19
2022-08-12T10:19:52.166Z,101495.91
2022-08-12T10:21:35.829Z,101488.47
2022-08-12T10:23:09.366Z,101481.50
2022-08-12T10:25:04.503Z,101485.56
2022-08-12T10:27:08.546Z,101478.09
2022-08-12T10:30:01.760Z,101472.84
2022-08-12T10:30:58.239Z,101474.69
2022-08-12T10:32:44.946Z,101464.69
2022-08-12T10:34:23.564Z,101467.06
2022-08-12T10:36:00.272Z,101464.03
2022-08-12T10:38:34.890Z,101466.41
2022-08-12T10:40:05.648Z,101458.75
2022-08-12T10:41:56.865Z,101452.31
2022-08-12T10:43:55.423Z,101446.03
2022-08-12T10:45:30.447Z,101440.13
2022-08-12T10:47:03.679Z,101449.28
2022-08-12T10:48:55.879Z,101440.28
2022-08-12T10:51:00.996Z,101434.00
2022-08-12T10:52:37.941Z,101439.91
2022-08-12T10:54:14.495Z,101444.16
2022-08-12T10:55:46.209Z,101424.84
2022-08-12T10:58:13.230Z,101422.81
2022-08-12T10:59:11.617Z,101435.53
2022-08-12T11:00:45.133Z,101436.41
2022-08-12T11:04:20.891Z,101428.94
2022-08-12T11:04:34.248Z,101417.91
2022-08-12T11:07:08.462Z,101416.88
2022-08-12T11:08:34.332Z,101414.47
2022-08-12T11:10:01.558Z,101414.81
2022-08-12T11:12:34.991Z,101418.38
2022-08-12T11:13:46.997Z,101420.94
2022-08-12T11:15:32.901Z,101415.50
2022-08-12T11:17:42.932Z,101411.06
2022-08-12T11:19:07.049Z,101426.19
2022-08-12T11:20:39.086Z,101416.16
2022-08-12T11:22:12.287Z,101403.78
2022-08-12T11:23:46.066Z,101401.91
2022-08-12T11:25:42.335Z,101402.59
2022-08-12T11:27:19.104Z,101408.88
2022-08-12T11:29:05.448Z,101401.41
2022-08-12T11:30:37.645Z,101403.78
2022-08-12T11:32:09.718Z,101408.19
2022-08-12T11:34:04.502Z,101397.31
2022-08-12T11:35:38.862Z,101406.31
2022-08-12T11:37:25.489Z,101401.56
2022-08-12T11:39:04.462Z,101398.00
2022-08-12T11:40:42.616Z,101394.59
2022-08-12T11:42:15.217Z,101392.75
2022-08-12T11:43:57.971Z,101390.69
2022-08-12T11:45:30.972Z,101394.44
2022-08-12T11:47:10.810Z,101390.03
2022-08-12T11:48:51.393Z,101386.47
2022-08-12T11:50:28.255Z,101392.75
2022-08-12T11:52:27.996Z,101382.91
2022-08-12T11:54:01.200Z,101384.09
2022-08-12T11:55:33.373Z,101384.94
2022-08-12T11:58:07.516Z,101380.34
2022-08-12T12:02:42.155Z,101384.94
2022-08-12T12:04:29.179Z,101383.91
2022-08-12T12:06:01.471Z,101384.94
2022-08-12T12:08:36.472Z,101372.38
2022-08-12T12:09:25.263Z,101378.47
2022-08-12T12:10:57.231Z,101387.47
2022-08-12T12:12:32.781Z,101381.88
2022-08-12T12:14:06.411Z,101377.13
2022-08-12T12:15:42.440Z,101367.28
2022-08-12T12:17:14.257Z,101370.84
2022-08-12T12:18:46.381Z,101370.47
2022-08-12T12:20:18.178Z,101365.91
2022-08-12T12:21:49.901Z,101372.38
2022-08-12T12:23:29.049Z,101361.16
2022-08-12T12:25:08.970Z,101368.28
2022-08-12T12:26:45.171Z,101366.09
2022-08-12T12:28:36.711Z,101364.00
2022-08-12T12:30:18.339Z,101364.69
2022-08-12T12:32:10.825Z,101359.75
2022-08-12T12:33:57.096Z,101359.25
2022-08-12T12:36:20.012Z,101357.69
2022-08-12T12:37:58.956Z,101353.25
2022-08-12T12:39:14.926Z,101341.66
2022-08-12T12:40:50.484Z,101337.50
2022-08-12T12:42:43.102Z,101338.53
2022-08-12T12:44:25.480Z,101334.09
2022-08-12T12:46:02.087Z,101319.56
2022-08-12T12:47:34.271Z,101320.63
2022-08-12T12:49:11.117Z,101314.19
2022-08-12T12:51:09.401Z,101324.84
2022-08-12T12:52:42.729Z,101312.13
2022-08-12T12:54:16.236Z,101325.28
2022-08-12T12:55:50.703Z,101316.44
2022-08-12T12:57:59.447Z,101312.91
2022-08-12T12:59:54.393Z,101315.84
2022-08-12T13:01:26.637Z,101312.75
2022-08-12T13:03:02.295Z,101317.38
2022-08-12T13:04:35.005Z,101309.09
2022-08-12T13:06:08.936Z,101313.56
2022-08-12T13:07:54.980Z,101305.03
2022-08-12T13:09:36.413Z,101310.97
2022-08-12T13:11:09.104Z,101301.94
2022-08-12T13:12:42.476Z,101306.22
2022-08-12T13:14:28.775Z,101306.00
2022-08-12T13:16:04.628Z,101298.25
2022-08-12T13:18:02.444Z,101298.25
2022-08-12T13:19:43.419Z,101304.97
2022-08-12T13:21:33.400Z,101305.16
2022-08-12T13:23:36.236Z,101303.03
2022-08-12T13:25:01.582Z,101303.88
2022-08-12T13:26:35.050Z,101296.50
2022-08-12T13:28:21.438Z,101294.38
2022-08-12T13:29:54.393Z,101291.22
2022-08-12T13:31:29.310Z,101293.06
2022-08-12T13:33:01.061Z,101287.09
2022-08-12T13:34:35.658Z,101294.28
2022-08-12T13:36:14.236Z,101283.25
2022-08-12T13:37:55.653Z,101285.56
2022-08-12T13:39:30.152Z,101284.44
2022-08-12T13:41:02.250Z,101287.59
2022-08-12T13:42:34.221Z,101280.19
2022-08-12T13:44:10.666Z,101282.03
2022-08-12T13:45:42.795Z,101279.84
2022-08-12T13:47:19.899Z,101272.56
2022-08-12T13:48:54.188Z,101272.72
2022-08-12T13:50:36.305Z,101272.84
2022-08-12T13:52:08.483Z,101277.00
2022-08-12T13:53:57.633Z,101284.38
2022-08-12T13:55:32.382Z,101271.91
2022-08-12T13:57:04.994Z,101272.44
2022-08-12T13:58:49.183Z,101260.38
2022-08-12T14:00:38.415Z,101270.16
2022-08-12T14:02:13.204Z,101261.53
2022-08-12T14:03:51.586Z,101260.91
2022-08-12T14:05:30.181Z,101265.03
2022-08-12T14:07:10.410Z,101251.00
2022-08-12T14:08:43.184Z,101248.38
2022-08-12T14:10:36.961Z,101253.41
2022-08-12T14:12:09.346Z,101249.53
2022-08-12T14:14:03.444Z,101254.50
2022-08-12T14:15:45.008Z,101253.72
2022-08-12T14:17:20.010Z,101242.63
2022-08-12T14:18:55.945Z,101252.34
2022-08-12T14:20:28.825Z,101246.72
2022-08-12T14:22:05.459Z,101248.06
2022-08-12T14:24:05.181Z,101247.91
2022-08-12T14:25:30.923Z,101241.91
2022-08-12T14:27:09.211Z,101241.44
2022-08-12T14:28:45.035Z,101235.78
2022-08-12T14:30:24.158Z,101235.44
2022-08-12T14:32:01.303Z,101236.31
2022-08-12T14:33:44.224Z,101239.13
2022-08-12T14:35:19.466Z,101235.31
2022-08-12T14:36:53.417Z,101237.72
2022-08-12T14:38:27.028Z,101239.25
2022-08-12T14:40:01.110Z,101244.00
2022-08-12T14:41:37.300Z,101236.19
2022-08-12T14:43:20.469Z,101234.16
2022-08-12T14:45:02.200Z,101244.47
2022-08-12T14:46:34.069Z,101240.88
2022-08-12T14:48:06.432Z,101229.25
2022-08-12T14:50:37.232Z,101234.47
2022-08-12T14:52:57.662Z,101233.91
2022-08-12T14:57:20.284Z,101228.16
2022-08-12T14:59:23.100Z,101231.34
2022-08-12T15:01:25.476Z,101228.44
2022-08-12T15:02:57.265Z,101231.41
2022-08-12T15:04:29.625Z,101224.03
2022-08-12T15:06:06.122Z,101225.91
2022-08-12T15:07:51.124Z,101223.13
2022-08-12T15:09:28.629Z,101217.09
2022-08-12T15:11:02.899Z,101221.78
2022-08-12T15:12:34.639Z,101220.88
2022-08-12T15:14:06.342Z,101220.09
2022-08-12T15:15:43.669Z,101218.13
2022-08-12T15:17:37.443Z,101205.81
2022-08-12T15:20:11.648Z,101212.75
2022-08-12T15:21:04.481Z,101210.81
2022-08-12T15:22:53.833Z,101217.72
2022-08-12T15:24:27.295Z,101207.63
2022-08-12T15:26:03.257Z,101211.25
2022-08-12T15:28:03.799Z,101199.63
2022-08-12T15:29:28.388Z,101194.00
2022-08-12T15:31:02.200Z,101201.41
2022-08-12T15:32:33.948Z,101197.72
2022-08-12T15:34:07.693Z,101196.34
2022-08-12T15:35:52.775Z,101205.31
2022-08-12T15:38:08.175Z,101201.03
2022-08-12T15:39:18.559Z,101208.41
2022-08-12T15:40:52.442Z,101205.91
2022-08-12T15:42:24.629Z,101199.47
2022-08-12T15:44:19.996Z,101199.97
2022-08-12T15:45:49.063Z,101198.25
2022-08-12T15:47:20.727Z,101195.94
2022-08-12T15:48:58.770Z,101186.94
2022-08-12T15:50:30.870Z,101197.09
2022-08-12T15:52:05.390Z,101210.19
2022-08-12T15:53:55.741Z,101200.72
2022-08-12T15:55:33.509Z,101193.56
2022-08-12T15:57:10.869Z,101201.13
2022-08-12T15:58:48.796Z,101193.16
2022-08-12T16:00:33.274Z,101189.31
2022-08-12T16:02:05.493Z,101203.19
2022-08-12T16:03:45.489Z,101191.84
2022-08-12T16:06:11.355Z,101191.78
2022-08-12T16:07:26.261Z,101196.94
2022-08-12T16:09:02.616Z,101189.03
2022-08-12T16:10:34.753Z,101183.81
2022-08-12T16:12:08.118Z,101184.50
2022-08-12T16:13:44.437Z,101187.09
2022-08-12T16:15:18.934Z,101174.97
2022-08-12T16:16:54.220Z,101179.72
2022-08-12T16:18:26.391Z,101173.59
2022-08-12T16:20:03.665Z,101192.66
2022-08-12T16:21:51.327Z,101178.66
2022-08-12T16:23:51.252Z,101183.38
2022-08-12T16:25:23.053Z,101176.00
2022-08-12T16:27:17.648Z,101171.81
2022-08-12T16:28:49.479Z,101169.75
2022-08-12T16:30:31.422Z,101178.38
2022-08-12T16:32:05.254Z,101166.16
2022-08-12T16:33:58.923Z,101170.38
2022-08-12T16:35:30.934Z,101162.59
2022-08-12T16:37:03.220Z,101161.97
2022-08-12T16:38:35.341Z,101167.41
2022-08-12T16:40:09.255Z,101161.31
2022-08-12T16:41:41.013Z,101159.00
2022-08-12T16:43:28.243Z,101165.94
2022-08-12T16:45:02.268Z,101160.88
2022-08-12T16:46:34.578Z,101164.81
2022-08-12T16:48:06.389Z,101157.91
2022-08-12T16:49:43.763Z,101160.22
2022-08-12T16:51:15.638Z,101152.63
2022-08-12T16:52:47.851Z,101145.47
2022-08-12T16:54:21.926Z,101151.13
2022-08-12T16:56:01.808Z,101146.38
2022-08-12T16:57:34.850Z,101158.97
2022-08-12T16:59:15.845Z,101158.28
2022-08-12T17:00:49.591Z,101153.19
2022-08-12T17:02:34.064Z,101149.56
2022-08-12T17:04:09.416Z,101153.03
2022-08-12T17:05:43.189Z,101161.56
2022-08-12T17:07:19.172Z,101152.69
2022-08-12T17:08:55.680Z,101157.72
2022-08-12T17:10:36.164Z,101155.59
2022-08-12T17:12:08.982Z,101159.50
2022-08-12T17:13:52.996Z,101164.03
2022-08-12T17:15:57.865Z,101161.84
2022-08-12T17:17:38.871Z,101153.66
2022-08-12T17:19:11.523Z,101160.16
2022-08-12T17:20:47.382Z,101156.72
2022-08-12T17:22:22.023Z,101158.16
2022-08-12T17:23:55.333Z,101164.03
2022-08-12T17:25:30.088Z,101160.75
2022-08-12T17:27:09.641Z,101153.94
2022-08-12T17:28:52.238Z,101165.34
2022-08-12T17:30:25.723Z,101172.78
2022-08-12T17:32:02.761Z,101161.22
2022-08-12T17:33:36.628Z,101145.88
2022-08-12T17:35:37.458Z,101154.03
2022-08-12T17:37:16.074Z,101153.91
2022-08-12T17:38:50.710Z,101158.84
2022-08-12T17:40:36.130Z,101157.34
2022-08-12T17:42:31.138Z,101160.06
2022-08-12T17:44:01.661Z,101162.59
2022-08-12T17:45:33.400Z,101162.59
2022-08-12T17:47:09.297Z,101160.91
2022-08-12T17:48:55.540Z,101162.72
2022-08-12T17:50:28.547Z,101170.25
2022-08-12T17:52:02.760Z,101170.16
2022-08-12T17:54:06.019Z,101169.22
2022-08-12T17:55:43.691Z,101160.59
2022-08-12T17:57:24.308Z,101154.00
2022-08-12T17:58:58.517Z,101156.72
2022-08-12T18:00:31.963Z,101159.84
2022-08-12T18:02:08.632Z,101156.06
2022-08-12T18:04:04.731Z,101164.53
2022-08-12T18:05:43.417Z,101163.78
2022-08-12T18:07:24.889Z,101169.59
2022-08-12T18:09:08.626Z,101172.13
2022-08-12T18:11:12.008Z,101171.44
2022-08-12T18:12:51.011Z,101167.88
2022-08-12T18:14:27.761Z,101170.59
2022-08-12T18:16:06.706Z,101174.34
2022-08-12T18:17:43.373Z,101171.63
2022-08-12T18:19:19.384Z,101174.72
2022-08-12T18:20:51.151Z,101184.09
2022-08-12T18:22:39.400Z,101185.22
2022-08-12T18:24:21.995Z,101185.59
2022-08-12T18:26:17.629Z,101187.28
2022-08-12T18:27:49.853Z,101193.66
2022-08-12T18:29:43.214Z,101191.81
2022-08-12T18:31:16.673Z,101189.84
2022-08-12T18:32:58.660Z,101190.03
2022-08-12T18:34:35.538Z,101199.56
2022-08-12T18:36:08.891Z,101193.81
2022-08-12T18:37:45.896Z,101204.25
2022-08-12T18:39:20.104Z,101196.09
2022-08-12T18:41:21.629Z,101194.75
2022-08-12T18:42:54.775Z,101197.16
2022-08-12T18:44:32.896Z,101206.69
2022-08-12T18:46:12.045Z,101201.63
2022-08-12T18:47:51.770Z,101204.72
2022-08-12T18:49:32.071Z,101205.06
2022-08-12T18:51:09.487Z,101208.50
2022-08-12T18:52:43.011Z,101205.47
2022-08-12T18:54:21.661Z,101206.66
2022-08-12T18:56:01.102Z,101212.63
2022-08-12T18:58:07.310Z,101220.09
2022-08-12T19:00:00.816Z,101210.16
2022-08-12T19:02:20.544Z,101213.22
2022-08-12T19:03:16.750Z,101209.16
2022-08-12T19:05:11.574Z,101218.16
2022-08-12T19:06:46.695Z,101217.00
2022-08-12T19:08:19.584Z,101220.06
2022-08-12T19:10:00.042Z,101219.41
2022-08-12T19:11:54.809Z,101230.63
2022-08-12T19:13:44.989Z,101228.44
2022-08-12T19:15:17.862Z,101232.53